RÉSULTATS    La Course des 3 Ponts - Édition du 08/11/2015

847 participants - 570 Hommes - 277 Femmes
120 licenciés (14%) - 727 non-licenciés (86%)

Temps moyen : 00:52:56


    Page / 34



Pos. Temps Nom - Prénom Club Dossard Catégorie km/h Tps Réel
822 01:08:46 FOUCHER Zoe 6332 CAF (1 / 1) 8.7 01:08:18
821 01:08:34 ROUSSEAU Maryse 6405 V2F (35 / 38) 8.7 01:08:01
820 01:08:34 MINARIE Chantal 6406 V2F (34 / 38) 8.7 01:08:01
819 01:08:16 LEBEUGLE Beatrice 6174 V2F (33 / 38) 8.7 01:07:42
818 01:08:14 MICHEL Mireille 6156 V1F (91 / 95) 8.7 01:07:34
817 01:08:08 JORGE Annick FAMILY TEAM K 2062 V3F (6 / 6) 8.8 01:07:46
816 01:08:07 PERIN Fabienne 6393 V1F (90 / 95) 8.8 01:07:35
815 01:08:06 GEORGET Daniel 2106 V3M (21 / 21) 8.8 01:07:29
814 01:07:58 TEIXEIRA Aurelie 6461 ESF (2 / 2) 8.8 01:07:55
813 01:07:56 ROBIN GIRAUDON Kore 485 SEF (119 / 132) 8.8 01:07:13
812 01:07:55 CLEMENCET Christine 597 V1F (89 / 95) 8.8 01:07:51
811 01:07:54 LE ROY Blandine 451 V1F (88 / 95) 8.8 01:07:21
810 01:07:54 DEVILLE Camille 452 SEF (118 / 132) 8.8 01:07:21
809 01:07:40 MARINO Christine 6441 V1F (87 / 95) 8.8 01:07:12
807 01:07:36 SIVAN Jean louis 6364 V3M (20 / 21) 8.8 01:06:59
808 01:07:36 BONTEMPS Aurore TEAM D 515 SEF (117 / 132) 8.8 01:06:55
806 01:07:33 BONNEFOI Marie laure 2015 V2F (32 / 38) 8.8 01:07:01
805 01:07:33 BERTHEAU Line 2016 V3F (5 / 6) 8.8 01:07:01
804 01:07:30 GAULTIER Romain 6302 SEM (249 / 252) 8.8 01:06:50
803 01:07:29 MIKLASZEWSKI Sandrine 6170 V1F (86 / 95) 8.8 01:06:50
802 01:07:21 NAUD Damien 6433 SEM (248 / 252) 8.9 01:06:48
801 01:07:21 DEWEZ Audrey 6482 SEF (116 / 132) 8.9 01:06:48
800 01:07:16 LANGLOIS Stephanie 6485 V1F (85 / 95) 8.9 01:07:04
799 01:06:58 FRENEAUX Marie francoise 6185 V3F (4 / 6) 8.9 01:06:25
798 01:06:53 PALOMO Sandra 6107 SEF (115 / 132) 8.9 01:06:21